createdAt,value
2019-04-11T00:00:53.514Z,0.00
2019-04-11T00:01:53.703Z,0.00
2019-04-11T00:02:53.880Z,0.00
2019-04-11T00:03:54.099Z,0.00
2019-04-11T00:04:54.651Z,0.00
2019-04-11T00:05:54.915Z,0.00
2019-04-11T00:06:54.631Z,0.00
2019-04-11T00:07:54.827Z,0.00
2019-04-11T00:08:55.003Z,0.00
2019-04-11T00:09:55.184Z,0.00
2019-04-11T00:10:55.604Z,0.00
2019-04-11T00:11:57.807Z,0.00
2019-04-11T00:12:56.922Z,0.00
2019-04-11T00:13:55.886Z,0.00
2019-04-11T00:14:56.096Z,0.00
2019-04-11T00:15:57.320Z,0.00
2019-04-11T00:16:57.382Z,0.00
2019-04-11T00:17:56.733Z,0.00
2019-04-11T00:18:56.959Z,0.00
2019-04-11T00:19:57.920Z,0.00
2019-04-11T00:20:58.258Z,0.00
2019-04-11T00:21:57.465Z,0.00
2019-04-11T00:22:57.744Z,0.00
2019-04-11T00:23:58.784Z,0.00
2019-04-11T00:24:58.920Z,0.00
2019-04-11T00:25:58.134Z,0.00
2019-04-11T00:27:00.336Z,0.00
2019-04-11T00:27:59.370Z,0.00
2019-04-11T00:28:58.720Z,0.00
2019-04-11T00:29:59.705Z,0.00
2019-04-11T00:30:59.175Z,0.00
2019-04-11T00:31:59.371Z,0.00
2019-04-11T00:33:00.173Z,0.00
2019-04-11T00:33:59.769Z,0.00
2019-04-11T00:34:59.952Z,0.00
2019-04-11T00:36:00.141Z,0.00
2019-04-11T00:37:00.982Z,0.00
2019-04-11T00:38:01.387Z,0.00
2019-04-11T00:39:01.407Z,0.00
2019-04-11T00:40:01.816Z,0.00
2019-04-11T00:41:01.667Z,0.00
2019-04-11T00:42:02.037Z,0.00
2019-04-11T00:43:01.503Z,0.00
2019-04-11T00:44:02.825Z,0.00
2019-04-11T00:45:01.915Z,0.00
2019-04-11T00:46:02.976Z,0.00
2019-04-11T00:47:02.329Z,0.00
2019-04-11T00:48:03.739Z,0.00
2019-04-11T00:49:02.680Z,0.00
2019-04-11T00:50:04.037Z,0.00
2019-04-11T00:51:04.126Z,0.00
2019-04-11T00:52:04.466Z,0.00
2019-04-11T00:53:03.645Z,0.00
2019-04-11T00:54:04.744Z,0.00
2019-04-11T00:55:04.984Z,0.00
2019-04-11T00:56:04.147Z,0.00
2019-04-11T00:57:04.445Z,0.00
2019-04-11T00:58:05.444Z,0.00
2019-04-11T00:59:05.767Z,0.00
2019-04-11T01:00:04.895Z,0.00
2019-04-11T01:01:04.958Z,0.00
2019-04-11T01:02:05.200Z,0.00
2019-04-11T01:03:06.539Z,0.00
2019-04-11T01:04:07.517Z,0.00
2019-04-11T01:05:05.626Z,0.00
2019-04-11T01:06:05.835Z,0.00
2019-04-11T01:07:06.850Z,0.00
2019-04-11T01:08:07.188Z,0.00
2019-04-11T01:09:06.467Z,0.00
2019-04-11T01:10:06.752Z,0.00
2019-04-11T01:11:07.800Z,0.00
2019-04-11T01:12:08.041Z,0.00
2019-04-11T01:13:07.199Z,0.00
2019-04-11T01:14:08.304Z,0.00
2019-04-11T01:15:07.498Z,0.00
2019-04-11T01:16:07.695Z,0.00
2019-04-11T01:17:07.898Z,0.00
2019-04-11T01:18:09.746Z,0.00
2019-04-11T01:19:08.768Z,0.00
2019-04-11T01:20:08.519Z,0.00
2019-04-11T01:21:08.722Z,0.00
2019-04-11T01:22:09.779Z,0.00
2019-04-11T01:23:09.012Z,0.00
2019-04-11T01:24:11.289Z,0.00
2019-04-11T01:25:10.474Z,0.00
2019-04-11T01:26:10.708Z,0.00
2019-04-11T01:27:09.868Z,0.00
2019-04-11T01:28:10.193Z,0.00
2019-04-11T01:29:11.233Z,0.00
2019-04-11T01:30:11.589Z,0.00
2019-04-11T01:31:11.566Z,0.00
2019-04-11T01:32:10.677Z,0.00
2019-04-11T01:33:10.916Z,0.00
2019-04-11T01:34:11.083Z,0.00
2019-04-11T01:35:11.270Z,0.00
2019-04-11T01:36:12.675Z,0.00
2019-04-11T01:37:12.697Z,0.00
2019-04-11T01:38:12.392Z,0.00
2019-04-11T01:39:12.640Z,0.00
2019-04-11T01:40:12.130Z,0.00
2019-04-11T01:41:12.308Z,0.00
2019-04-11T01:42:13.225Z,0.00
2019-04-11T01:43:13.555Z,0.00
2019-04-11T01:44:12.862Z,0.00
2019-04-11T01:45:13.565Z,0.00
2019-04-11T01:46:14.051Z,0.00
2019-04-11T01:47:13.502Z,0.00
2019-04-11T01:48:13.675Z,0.00
2019-04-11T01:49:14.315Z,0.00
2019-04-11T01:50:13.987Z,0.00
2019-04-11T01:51:14.172Z,0.00
2019-04-11T01:52:15.347Z,0.00
2019-04-11T01:53:15.144Z,0.00
2019-04-11T01:54:15.288Z,0.00
2019-04-11T01:55:14.850Z,0.00
2019-04-11T01:56:15.004Z,0.00
2019-04-11T01:57:15.871Z,0.00
2019-04-11T01:58:16.249Z,0.00
2019-04-11T01:59:15.480Z,0.00
2019-04-11T02:00:15.689Z,0.00
2019-04-11T02:01:16.818Z,0.00
2019-04-11T02:02:17.094Z,0.00
2019-04-11T02:03:17.105Z,0.00
2019-04-11T02:04:16.394Z,0.00
2019-04-11T02:05:16.741Z,0.00
2019-04-11T02:06:18.033Z,0.00
2019-04-11T02:07:18.491Z,0.00
2019-04-11T02:08:17.441Z,0.00
2019-04-11T02:09:17.417Z,0.00
2019-04-11T02:10:18.868Z,0.00
2019-04-11T02:11:17.855Z,0.00
2019-04-11T02:12:18.438Z,0.00
2019-04-11T02:13:19.500Z,0.00
2019-04-11T02:14:19.977Z,0.00
2019-04-11T02:15:19.835Z,0.00
2019-04-11T02:16:19.049Z,0.00
2019-04-11T02:17:19.922Z,0.00
2019-04-11T02:18:19.375Z,0.00
2019-04-11T02:19:20.318Z,0.00
2019-04-11T02:20:19.407Z,0.00
2019-04-11T02:21:19.885Z,0.00
2019-04-11T02:22:19.742Z,0.00
2019-04-11T02:23:20.137Z,0.00
2019-04-11T02:24:20.182Z,0.00
2019-04-11T02:25:20.532Z,0.00
2019-04-11T02:26:20.936Z,0.00
2019-04-11T02:27:21.113Z,0.00
2019-04-11T02:28:20.741Z,0.00
2019-04-11T02:29:21.403Z,0.00
2019-04-11T02:30:22.756Z,0.00
2019-04-11T02:31:22.849Z,0.00
2019-04-11T02:32:24.585Z,0.00
2019-04-11T02:33:24.798Z,0.00
2019-04-11T02:34:23.382Z,0.00
2019-04-11T02:35:23.964Z,0.00
2019-04-11T02:36:24.815Z,0.00
2019-04-11T02:37:24.076Z,0.00
2019-04-11T02:38:24.365Z,0.00
2019-04-11T02:39:24.629Z,0.00
2019-04-11T02:40:24.626Z,0.00
2019-04-11T02:41:23.061Z,0.00
2019-04-11T02:42:23.512Z,0.00
2019-04-11T02:43:25.638Z,0.00
2019-04-11T02:44:39.539Z,0.00
2019-04-11T02:45:40.836Z,0.00
2019-04-11T02:46:35.268Z,0.00
2019-04-11T02:47:31.228Z,0.00
2019-04-11T02:48:26.896Z,0.00
2019-04-11T02:49:25.726Z,0.00
2019-04-11T02:50:26.500Z,0.00
2019-04-11T02:51:26.998Z,0.00
2019-04-11T02:52:25.506Z,0.00
2019-04-11T02:53:28.154Z,0.00
2019-04-11T02:54:26.513Z,0.00
2019-04-11T02:55:27.756Z,0.00
2019-04-11T02:56:27.799Z,0.00
2019-04-11T02:57:27.290Z,0.00
2019-04-11T02:58:27.906Z,0.00
2019-04-11T02:59:27.428Z,0.00
2019-04-11T03:00:29.143Z,0.00
2019-04-11T03:01:28.290Z,0.00
2019-04-11T03:02:27.005Z,0.00
2019-04-11T03:03:27.449Z,0.00
2019-04-11T03:04:29.016Z,0.00
2019-04-11T03:05:28.975Z,0.00
2019-04-11T03:06:28.785Z,0.00
2019-04-11T03:07:29.866Z,0.00
2019-04-11T03:08:29.865Z,0.00
2019-04-11T03:09:31.022Z,0.00
2019-04-11T03:10:28.930Z,0.00
2019-04-11T03:11:30.318Z,0.00
2019-04-11T03:12:31.679Z,0.00
2019-04-11T03:13:29.458Z,0.00
2019-04-11T03:14:47.722Z,0.00
2019-04-11T03:15:44.661Z,0.00
2019-04-11T03:16:42.818Z,0.00
2019-04-11T03:17:36.767Z,0.00
2019-04-11T03:18:51.345Z,0.00
2019-04-11T03:19:43.956Z,0.00
2019-04-11T03:20:39.216Z,0.00
2019-04-11T03:21:36.676Z,0.00
2019-04-11T03:22:34.472Z,0.00
2019-04-11T03:23:33.210Z,0.00
2019-04-11T03:24:33.294Z,0.00
2019-04-11T03:25:33.021Z,0.00
2019-04-11T03:26:33.435Z,0.00
2019-04-11T03:27:32.520Z,0.00
2019-04-11T03:28:33.527Z,0.00
2019-04-11T03:29:33.752Z,0.00
2019-04-11T03:30:48.834Z,0.00
2019-04-11T03:32:14.372Z,0.00
2019-04-11T03:33:25.282Z,0.00
2019-04-11T03:35:23.308Z,0.00
2019-04-11T03:36:22.098Z,0.00
2019-04-11T03:37:19.370Z,0.00
2019-04-11T03:38:00.378Z,0.00
2019-04-11T03:38:55.088Z,0.00
2019-04-11T03:39:57.468Z,0.00
2019-04-11T03:40:57.757Z,0.00
2019-04-11T03:41:51.856Z,0.00
2019-04-11T03:42:52.388Z,0.00
2019-04-11T03:43:48.583Z,0.00
2019-04-11T03:44:42.733Z,0.00
2019-04-11T03:46:01.850Z,0.00
2019-04-11T03:46:52.711Z,0.00
2019-04-11T03:47:54.733Z,0.00
2019-04-11T03:48:51.206Z,0.00
2019-04-11T03:49:44.851Z,0.00
2019-04-11T03:50:39.391Z,0.00
2019-04-11T03:51:38.391Z,0.00
2019-04-11T03:52:37.610Z,0.00
2019-04-11T03:53:37.332Z,0.00
2019-04-11T03:54:38.946Z,0.00
2019-04-11T03:55:37.134Z,0.00
2019-04-11T03:56:37.628Z,0.00
2019-04-11T03:57:39.430Z,0.00
2019-04-11T03:58:39.551Z,0.00
2019-04-11T03:59:39.032Z,0.00
2019-04-11T04:00:43.116Z,0.00
2019-04-11T04:01:40.196Z,0.00
2019-04-11T04:02:41.153Z,0.00
2019-04-11T04:03:39.280Z,0.00
2019-04-11T04:04:41.397Z,0.00
2019-04-11T04:05:39.727Z,0.00
2019-04-11T04:06:41.503Z,0.00
2019-04-11T04:07:40.329Z,0.00
2019-04-11T04:08:39.810Z,0.00
2019-04-11T04:09:40.365Z,0.00
2019-04-11T04:10:41.781Z,0.00
2019-04-11T04:11:41.365Z,0.00
2019-04-11T04:12:40.403Z,0.00
2019-04-11T04:13:42.711Z,0.00
2019-04-11T04:14:42.848Z,0.00
2019-04-11T04:15:55.847Z,0.00
2019-04-11T04:16:47.694Z,0.00
2019-04-11T04:17:43.538Z,0.00
2019-04-11T04:18:41.361Z,0.00
2019-04-11T04:19:41.557Z,0.00
2019-04-11T04:20:42.403Z,0.00
2019-04-11T04:21:43.083Z,0.00
2019-04-11T04:22:45.628Z,0.00
2019-04-11T04:23:43.248Z,0.00
2019-04-11T04:24:44.354Z,0.00
2019-04-11T04:25:47.058Z,0.00
2019-04-11T04:26:43.213Z,0.00
2019-04-11T04:27:45.094Z,0.00
2019-04-11T04:28:43.180Z,0.00
2019-04-11T04:29:47.309Z,0.00
2019-04-11T04:30:46.978Z,0.00
2019-04-11T04:31:44.746Z,0.00
2019-04-11T04:32:45.187Z,0.00
2019-04-11T04:33:45.470Z,0.00
2019-04-11T04:34:44.900Z,0.00
2019-04-11T04:35:45.457Z,0.00
2019-04-11T04:36:44.632Z,0.00
2019-04-11T04:37:45.385Z,0.00
2019-04-11T04:38:46.457Z,5.62
2019-04-11T04:39:47.831Z,5.62
2019-04-11T04:41:00.734Z,5.62
2019-04-11T04:41:55.358Z,5.62
2019-04-11T04:42:51.008Z,5.62
2019-04-11T04:43:48.420Z,5.62
2019-04-11T04:44:46.678Z,5.62
2019-04-11T04:46:07.428Z,5.62
2019-04-11T04:47:01.651Z,11.25
2019-04-11T04:47:54.851Z,11.25
2019-04-11T04:48:51.031Z,11.25
2019-04-11T04:49:48.213Z,11.25
2019-04-11T04:50:48.771Z,11.25
2019-04-11T04:51:47.834Z,16.88
2019-04-11T04:52:49.142Z,16.88
2019-04-11T04:53:50.207Z,16.88
2019-04-11T04:54:48.541Z,16.88
2019-04-11T04:55:50.214Z,16.88
2019-04-11T04:56:50.342Z,22.50
2019-04-11T04:57:48.823Z,22.50
2019-04-11T04:58:50.668Z,22.50
2019-04-11T04:59:49.919Z,22.50
2019-04-11T05:00:51.417Z,22.50
2019-04-11T05:01:50.748Z,28.12
2019-04-11T05:02:50.330Z,28.12
2019-04-11T05:03:50.951Z,28.12
2019-04-11T05:04:49.813Z,28.12
2019-04-11T05:05:50.985Z,33.75
2019-04-11T05:06:52.213Z,33.75
2019-04-11T05:07:51.961Z,33.75
2019-04-11T05:08:51.496Z,33.75
2019-04-11T05:09:51.903Z,39.38
2019-04-11T05:10:51.337Z,39.38
2019-04-11T05:11:53.012Z,39.38
2019-04-11T05:12:51.432Z,39.38
2019-04-11T05:13:52.388Z,45.00
2019-04-11T05:14:51.948Z,45.00
2019-04-11T05:16:05.730Z,45.00
2019-04-11T05:16:54.627Z,50.62
2019-04-11T05:17:53.321Z,50.62
2019-04-11T05:18:52.617Z,50.62
2019-04-11T05:19:54.428Z,56.25
2019-04-11T05:20:52.845Z,56.25
2019-04-11T05:21:54.048Z,56.25
2019-04-11T05:22:53.151Z,56.25
2019-04-11T05:23:54.227Z,61.88
2019-04-11T05:24:53.951Z,61.88
2019-04-11T05:25:53.641Z,67.50
2019-04-11T05:26:53.831Z,67.50
2019-04-11T05:27:54.119Z,67.50
2019-04-11T05:28:55.222Z,67.50
2019-04-11T05:29:54.320Z,73.12
2019-04-11T05:30:55.300Z,73.12
2019-04-11T05:31:54.720Z,73.12
2019-04-11T05:32:55.726Z,73.12
2019-04-11T05:33:56.042Z,78.75
2019-04-11T05:34:55.241Z,78.75
2019-04-11T05:35:56.367Z,84.38
2019-04-11T05:36:55.555Z,84.38
2019-04-11T05:37:57.813Z,84.38
2019-04-11T05:38:55.967Z,90.00
2019-04-11T05:39:56.722Z,95.62
2019-04-11T05:40:56.679Z,95.62
2019-04-11T05:41:56.768Z,95.62
2019-04-11T05:42:57.688Z,95.62
2019-04-11T05:44:01.895Z,101.25
2019-04-11T05:44:59.028Z,101.25
2019-04-11T05:45:58.353Z,101.25
2019-04-11T05:47:01.942Z,101.25
2019-04-11T05:47:58.425Z,101.25
2019-04-11T05:49:00.622Z,106.88
2019-04-11T05:49:59.005Z,106.88
2019-04-11T05:50:58.288Z,106.88
2019-04-11T05:51:58.895Z,106.88
2019-04-11T05:53:00.065Z,106.88
2019-04-11T05:54:01.950Z,112.50
2019-04-11T05:55:00.717Z,112.50
2019-04-11T05:55:59.421Z,112.50
2019-04-11T05:56:59.531Z,118.12
2019-04-11T05:57:59.076Z,118.12
2019-04-11T05:58:59.842Z,123.75
2019-04-11T05:59:59.418Z,123.75
2019-04-11T06:00:59.724Z,129.38
2019-04-11T06:02:05.231Z,135.00
2019-04-11T06:03:01.917Z,135.00
2019-04-11T06:04:00.432Z,135.00
2019-04-11T06:05:02.722Z,135.00
2019-04-11T06:06:01.790Z,135.00
2019-04-11T06:07:01.652Z,135.00
2019-04-11T06:08:00.829Z,135.00
2019-04-11T06:09:02.150Z,140.62
2019-04-11T06:10:07.094Z,151.88
2019-04-11T06:11:03.875Z,151.88
2019-04-11T06:12:03.328Z,146.25
2019-04-11T06:13:02.516Z,146.25
2019-04-11T06:14:03.809Z,146.25
2019-04-11T06:15:03.952Z,151.88
2019-04-11T06:16:02.880Z,157.50
2019-04-11T06:17:03.377Z,157.50
2019-04-11T06:18:02.834Z,151.88
2019-04-11T06:19:03.900Z,151.88
2019-04-11T06:20:03.963Z,157.50
2019-04-11T06:21:03.966Z,157.50
2019-04-11T06:22:03.135Z,168.75
2019-04-11T06:23:04.666Z,174.38
2019-04-11T06:24:04.531Z,168.75
2019-04-11T06:25:04.111Z,168.75
2019-04-11T06:26:06.104Z,180.00
2019-04-11T06:27:04.096Z,185.62
2019-04-11T06:28:06.230Z,191.25
2019-04-11T06:29:14.649Z,191.25
2019-04-11T06:30:07.493Z,185.62
2019-04-11T06:31:06.068Z,180.00
2019-04-11T06:32:05.647Z,180.00
2019-04-11T06:33:04.920Z,180.00
2019-04-11T06:34:05.090Z,174.38
2019-04-11T06:35:06.096Z,174.38
2019-04-11T06:36:05.424Z,191.25
2019-04-11T06:37:05.702Z,202.50
2019-04-11T06:38:06.041Z,208.12
2019-04-11T06:39:07.174Z,191.25
2019-04-11T06:40:06.085Z,180.00
2019-04-11T06:41:06.354Z,180.00
2019-04-11T06:42:07.498Z,185.62
2019-04-11T06:43:07.569Z,185.62
2019-04-11T06:44:06.916Z,196.88
2019-04-11T06:45:09.222Z,213.75
2019-04-11T06:46:07.183Z,213.75
2019-04-11T06:47:08.362Z,225.00
2019-04-11T06:48:09.398Z,230.62
2019-04-11T06:49:09.656Z,230.62
2019-04-11T06:50:09.007Z,219.38
2019-04-11T06:51:08.167Z,225.00
2019-04-11T06:52:08.533Z,219.38
2019-04-11T06:53:08.978Z,219.38
2019-04-11T06:54:08.555Z,219.38
2019-04-11T06:55:08.829Z,213.75
2019-04-11T06:56:08.920Z,225.00
2019-04-11T06:57:09.673Z,219.38
2019-04-11T06:58:09.277Z,213.75
2019-04-11T06:59:10.146Z,213.75
2019-04-11T07:00:09.603Z,213.75
2019-04-11T07:01:09.870Z,213.75
2019-04-11T07:02:16.334Z,219.38
2019-04-11T07:03:20.659Z,219.38
2019-04-11T07:04:13.261Z,225.00
2019-04-11T07:05:10.755Z,219.38
2019-04-11T07:06:11.592Z,219.38
2019-04-11T07:07:11.082Z,219.38
2019-04-11T07:08:11.920Z,225.00
2019-04-11T07:09:11.059Z,225.00
2019-04-11T07:10:11.706Z,225.00
2019-04-11T07:11:11.467Z,225.00
2019-04-11T07:12:11.664Z,236.25
2019-04-11T07:13:12.090Z,230.62
2019-04-11T07:14:12.477Z,230.62
2019-04-11T07:15:12.295Z,230.62
2019-04-11T07:16:13.310Z,236.25
2019-04-11T07:17:13.737Z,230.62
2019-04-11T07:18:14.018Z,230.62
2019-04-11T07:19:13.441Z,236.25
2019-04-11T07:20:13.207Z,236.25
2019-04-11T07:21:13.385Z,241.88
2019-04-11T07:22:13.589Z,236.25
2019-04-11T07:23:13.777Z,236.25
2019-04-11T07:24:13.987Z,241.88
2019-04-11T07:25:14.620Z,241.88
2019-04-11T07:26:14.431Z,241.88
2019-04-11T07:27:14.486Z,247.50
2019-04-11T07:28:14.668Z,247.50
2019-04-11T07:29:15.281Z,247.50
2019-04-11T07:30:15.733Z,253.12
2019-04-11T07:31:15.160Z,253.12
2019-04-11T07:32:16.155Z,258.75
2019-04-11T07:33:16.430Z,264.38
2019-04-11T07:34:16.941Z,281.25
2019-04-11T07:35:17.250Z,275.62
2019-04-11T07:36:15.981Z,275.62
2019-04-11T07:37:16.132Z,270.00
2019-04-11T07:38:16.305Z,264.38
2019-04-11T07:39:17.542Z,264.38
2019-04-11T07:40:17.854Z,264.38
2019-04-11T07:41:17.409Z,270.00
2019-04-11T07:42:18.196Z,270.00
2019-04-11T07:43:18.454Z,275.62
2019-04-11T07:44:19.387Z,275.62
2019-04-11T07:45:17.479Z,292.50
2019-04-11T07:46:18.640Z,292.50
2019-04-11T07:47:21.578Z,292.50
2019-04-11T07:48:19.885Z,303.75
2019-04-11T07:49:18.115Z,309.38
2019-04-11T07:50:19.747Z,303.75
2019-04-11T07:51:19.641Z,309.38
2019-04-11T07:52:20.439Z,292.50
2019-04-11T07:53:19.709Z,298.12
2019-04-11T07:54:20.153Z,388.12
2019-04-11T07:55:19.230Z,590.62
2019-04-11T07:56:19.409Z,686.25
2019-04-11T07:57:19.573Z,1147.50
2019-04-11T07:58:19.747Z,1080.00
2019-04-11T07:59:19.916Z,826.88
2019-04-11T08:00:33.235Z,939.38
2019-04-11T08:01:21.243Z,849.38
2019-04-11T08:02:21.469Z,978.75
2019-04-11T08:03:21.401Z,956.25
2019-04-11T08:04:21.645Z,781.88
2019-04-11T08:05:21.503Z,675.00
2019-04-11T08:06:22.230Z,421.88
2019-04-11T08:07:22.165Z,421.88
2019-04-11T08:08:21.585Z,489.38
2019-04-11T08:09:22.158Z,669.38
2019-04-11T08:10:22.815Z,646.88
2019-04-11T08:11:23.319Z,866.25
2019-04-11T08:12:23.462Z,1344.38
2019-04-11T08:13:22.682Z,1096.88
2019-04-11T08:14:24.508Z,832.50
2019-04-11T08:15:23.786Z,658.12
2019-04-11T08:16:23.941Z,624.38
2019-04-11T08:17:30.908Z,590.62
2019-04-11T08:18:26.405Z,540.00
2019-04-11T08:19:24.677Z,466.88
2019-04-11T08:20:25.642Z,450.00
2019-04-11T08:21:24.005Z,433.12
2019-04-11T08:22:25.135Z,472.50
2019-04-11T08:23:24.242Z,466.88
2019-04-11T08:24:26.919Z,483.75
2019-04-11T08:25:25.515Z,585.00
2019-04-11T08:26:24.647Z,765.00
2019-04-11T08:27:25.799Z,894.38
2019-04-11T08:28:24.958Z,776.25
2019-04-11T08:29:27.012Z,765.00
2019-04-11T08:30:25.286Z,1006.88
2019-04-11T08:31:26.447Z,961.88
2019-04-11T08:32:25.675Z,1130.62
2019-04-11T08:33:26.749Z,1468.12
2019-04-11T08:34:27.003Z,1591.88
2019-04-11T08:35:26.321Z,1372.50
2019-04-11T08:36:27.355Z,1800.00
2019-04-11T08:37:27.574Z,1906.88
2019-04-11T08:38:26.773Z,1434.38
2019-04-11T08:39:29.021Z,1338.75
2019-04-11T08:40:28.120Z,1710.00
2019-04-11T08:41:27.452Z,1563.75
2019-04-11T08:42:29.568Z,1451.25
2019-04-11T08:43:27.505Z,1417.50
2019-04-11T08:44:28.061Z,1260.00
2019-04-11T08:45:27.912Z,1310.62
2019-04-11T08:46:28.975Z,1260.00
2019-04-11T08:47:40.209Z,1226.25
2019-04-11T08:48:30.437Z,1181.25
2019-04-11T08:49:29.974Z,1136.25
2019-04-11T08:50:30.340Z,1203.75
2019-04-11T08:51:29.430Z,1220.62
2019-04-11T08:52:29.797Z,1338.75
2019-04-11T08:53:29.245Z,1698.75
2019-04-11T08:54:29.449Z,2323.12
2019-04-11T08:55:42.172Z,2722.50
2019-04-11T08:56:31.346Z,2795.62
2019-04-11T08:57:30.002Z,3015.00
2019-04-11T08:58:30.957Z,3093.75
2019-04-11T08:59:30.383Z,3105.00
2019-04-11T09:00:32.731Z,2176.88
2019-04-11T09:01:31.890Z,3172.50
2019-04-11T09:02:31.166Z,1867.50
2019-04-11T09:03:31.450Z,2430.00
2019-04-11T09:04:32.353Z,2908.12
2019-04-11T09:05:31.577Z,1980.00
2019-04-11T09:06:32.609Z,1462.50
2019-04-11T09:07:31.969Z,2621.25
2019-04-11T09:08:32.306Z,894.38
2019-04-11T09:09:33.369Z,821.25
2019-04-11T09:10:33.702Z,821.25
2019-04-11T09:11:33.083Z,945.00
2019-04-11T09:12:32.827Z,871.88
2019-04-11T09:13:33.523Z,967.50
2019-04-11T09:14:33.139Z,911.25
2019-04-11T09:15:33.309Z,1665.00
2019-04-11T09:16:34.008Z,1046.25
2019-04-11T09:17:34.495Z,1305.00
2019-04-11T09:18:34.373Z,1203.75
2019-04-11T09:19:34.799Z,1153.12
2019-04-11T09:20:34.302Z,793.12
2019-04-11T09:21:34.474Z,798.75
2019-04-11T09:22:35.361Z,804.38
2019-04-11T09:23:35.716Z,967.50
2019-04-11T09:24:35.049Z,2013.75
2019-04-11T09:25:35.217Z,2728.12
2019-04-11T09:26:36.070Z,1878.75
2019-04-11T09:27:36.522Z,2649.38
2019-04-11T09:28:35.861Z,1946.25
2019-04-11T09:29:36.025Z,2660.62
2019-04-11T09:30:36.850Z,2458.12
2019-04-11T09:31:37.871Z,2739.38
2019-04-11T09:32:36.579Z,2559.38
2019-04-11T09:33:38.032Z,1878.75
2019-04-11T09:34:37.689Z,2233.12
2019-04-11T09:35:37.424Z,2407.50
2019-04-11T09:36:37.360Z,1884.38
2019-04-11T09:37:37.900Z,2047.50
2019-04-11T09:38:38.166Z,2373.75
2019-04-11T09:39:39.229Z,2092.50
2019-04-11T09:40:38.173Z,3240.00
2019-04-11T09:41:38.702Z,3251.25
2019-04-11T09:42:38.749Z,3189.38
2019-04-11T09:43:40.110Z,1254.38
2019-04-11T09:44:39.303Z,2863.12
2019-04-11T09:45:38.992Z,2480.62
2019-04-11T09:46:39.162Z,2221.88
2019-04-11T09:47:40.404Z,1479.38
2019-04-11T09:48:39.994Z,1423.12
2019-04-11T09:49:39.760Z,2649.38
2019-04-11T09:50:40.598Z,1215.00
2019-04-11T09:51:40.385Z,2790.00
2019-04-11T09:52:41.377Z,2407.50
2019-04-11T09:53:41.017Z,3616.88
2019-04-11T09:54:40.655Z,3442.50
2019-04-11T09:55:41.708Z,3611.25
2019-04-11T09:56:40.975Z,3526.88
2019-04-11T09:57:41.936Z,3667.50
2019-04-11T09:58:42.122Z,3774.38
2019-04-11T09:59:41.474Z,1743.75
2019-04-11T10:00:41.647Z,1912.50
2019-04-11T10:01:42.983Z,2638.12
2019-04-11T10:02:42.017Z,2671.88
2019-04-11T10:03:43.013Z,3673.12
2019-04-11T10:04:42.320Z,2120.62
2019-04-11T10:05:42.697Z,1985.62
2019-04-11T10:06:44.585Z,3830.62
2019-04-11T10:07:44.031Z,3898.12
2019-04-11T10:08:43.705Z,3853.12
2019-04-11T10:09:44.104Z,3926.25
2019-04-11T10:10:44.611Z,3881.25
2019-04-11T10:11:44.457Z,3937.50
2019-04-11T10:12:44.616Z,3915.00
2019-04-11T10:13:44.943Z,3706.88
2019-04-11T10:14:44.036Z,3380.62
2019-04-11T10:15:45.250Z,658.12
2019-04-11T10:16:46.501Z,691.88
2019-04-11T10:17:44.674Z,675.00
2019-04-11T10:18:44.866Z,2964.38
2019-04-11T10:19:46.276Z,4241.25
2019-04-11T10:20:45.572Z,4134.38
2019-04-11T10:21:45.738Z,4173.75
2019-04-11T10:22:45.996Z,945.00
2019-04-11T10:23:47.070Z,2559.38
2019-04-11T10:24:46.326Z,883.12
2019-04-11T10:25:46.068Z,821.25
2019-04-11T10:26:46.250Z,894.38
2019-04-11T10:27:46.995Z,1361.25
2019-04-11T10:28:46.648Z,1186.88
2019-04-11T10:29:46.802Z,3881.25
2019-04-11T10:30:48.145Z,4050.00
2019-04-11T10:31:47.540Z,2075.62
2019-04-11T10:32:47.616Z,4078.12
2019-04-11T10:33:48.915Z,939.38
2019-04-11T10:34:47.930Z,911.25
2019-04-11T10:35:48.323Z,3830.62
2019-04-11T10:36:49.474Z,4095.00
2019-04-11T10:37:48.288Z,3971.25
2019-04-11T10:38:48.842Z,4010.62
2019-04-11T10:39:49.261Z,4168.12
2019-04-11T10:40:48.817Z,3780.00
2019-04-11T10:41:49.223Z,3763.12
2019-04-11T10:42:50.237Z,1029.38
2019-04-11T10:43:49.592Z,1001.25
2019-04-11T10:44:50.921Z,1558.12
2019-04-11T10:45:51.014Z,832.50
2019-04-11T10:46:50.043Z,787.50
2019-04-11T10:47:51.074Z,883.12
2019-04-11T10:48:50.434Z,3183.75
2019-04-11T10:49:52.555Z,3808.12
2019-04-11T10:50:50.791Z,3661.88
2019-04-11T10:51:50.981Z,916.88
2019-04-11T10:52:51.158Z,731.25
2019-04-11T10:53:51.322Z,669.38
2019-04-11T10:54:53.295Z,652.50
2019-04-11T10:55:51.800Z,641.25
2019-04-11T10:56:51.891Z,736.88
2019-04-11T10:57:52.158Z,3628.12
2019-04-11T10:58:53.163Z,3695.62
2019-04-11T10:59:52.468Z,3712.50
2019-04-11T11:00:53.621Z,3701.25
2019-04-11T11:01:52.839Z,3493.12
2019-04-11T11:02:53.640Z,3538.12
2019-04-11T11:03:53.492Z,3560.62
2019-04-11T11:04:53.685Z,3515.62
2019-04-11T11:05:53.575Z,1710.00
2019-04-11T11:06:53.898Z,2148.75
2019-04-11T11:07:54.861Z,3605.62
2019-04-11T11:08:54.131Z,3150.00
2019-04-11T11:09:54.660Z,3763.12
2019-04-11T11:10:55.563Z,3915.00
2019-04-11T11:11:54.884Z,3920.62
2019-04-11T11:12:54.897Z,3870.00
2019-04-11T11:13:56.262Z,3898.12
2019-04-11T11:14:55.410Z,3948.75
2019-04-11T11:15:56.390Z,4078.12
2019-04-11T11:16:56.544Z,4218.75
2019-04-11T11:18:27.877Z,4038.75
2019-04-11T11:19:25.979Z,4078.12
2019-04-11T11:20:10.622Z,4123.12
2019-04-11T11:21:00.826Z,3943.12
2019-04-11T11:22:00.448Z,3999.38
2019-04-11T11:22:57.618Z,3498.75
2019-04-11T11:23:57.075Z,3819.38
2019-04-11T11:24:57.991Z,3847.50
2019-04-11T11:25:58.450Z,3954.38
2019-04-11T11:26:58.764Z,3931.88
2019-04-11T11:27:57.938Z,4072.50
2019-04-11T11:28:57.572Z,3943.12
2019-04-11T11:29:58.224Z,3695.62
2019-04-11T11:30:58.458Z,3965.62
2019-04-11T11:31:58.125Z,4095.00
2019-04-11T11:32:58.337Z,4117.50
2019-04-11T11:33:58.864Z,4179.38
2019-04-11T11:34:59.691Z,4134.38
2019-04-11T11:36:01.103Z,3960.00
2019-04-11T11:37:00.664Z,3870.00
2019-04-11T11:37:59.730Z,956.25
2019-04-11T11:39:00.337Z,838.12
2019-04-11T11:40:04.424Z,832.50
2019-04-11T11:41:00.792Z,3583.12
2019-04-11T11:41:59.943Z,2430.00
2019-04-11T11:43:00.977Z,720.00
2019-04-11T11:44:00.354Z,697.50
2019-04-11T11:45:02.380Z,691.88
2019-04-11T11:46:00.923Z,753.75
2019-04-11T11:47:03.524Z,3375.00
2019-04-11T11:48:02.055Z,3600.00
2019-04-11T11:49:02.731Z,3656.25
2019-04-11T11:50:04.353Z,3633.75
2019-04-11T11:51:03.366Z,3639.38
2019-04-11T11:52:03.016Z,826.88
2019-04-11T11:53:08.215Z,883.12
2019-04-11T11:54:03.130Z,3830.62
2019-04-11T11:55:02.292Z,2238.75
2019-04-11T11:56:03.482Z,2385.00
2019-04-11T11:57:02.626Z,3313.12
2019-04-11T11:58:03.428Z,3110.62
2019-04-11T11:59:03.027Z,3718.12
2019-04-11T12:00:03.199Z,3841.88
2019-04-11T12:01:08.487Z,3718.12
2019-04-11T12:02:06.437Z,3577.50
2019-04-11T12:03:03.832Z,3684.38
2019-04-11T12:04:04.920Z,3808.12
2019-04-11T12:05:08.896Z,3819.38
2019-04-11T12:06:07.247Z,3639.38
2019-04-11T12:07:06.010Z,3414.38
2019-04-11T12:08:08.764Z,1845.00
2019-04-11T12:09:06.515Z,3892.50
2019-04-11T12:10:05.095Z,3746.25
2019-04-11T12:11:06.036Z,3650.62
2019-04-11T12:12:06.462Z,3661.88
2019-04-11T12:13:08.527Z,3481.88
2019-04-11T12:14:07.807Z,3352.50
2019-04-11T12:15:05.968Z,3324.38
2019-04-11T12:16:06.156Z,3481.88
2019-04-11T12:17:06.792Z,3639.38
2019-04-11T12:18:09.545Z,3718.12
2019-04-11T12:19:06.789Z,3667.50
2019-04-11T12:20:11.608Z,3645.00
2019-04-11T12:21:09.437Z,3633.75
2019-04-11T12:22:08.335Z,3611.25
2019-04-11T12:23:07.407Z,3206.25
2019-04-11T12:24:08.519Z,3712.50
2019-04-11T12:25:09.197Z,3611.25
2019-04-11T12:26:10.561Z,3588.75
2019-04-11T12:27:09.784Z,3661.88
2019-04-11T12:28:13.214Z,3661.88
2019-04-11T12:29:10.572Z,3555.00
2019-04-11T12:30:10.373Z,3718.12
2019-04-11T12:31:09.858Z,3903.75
2019-04-11T12:32:10.353Z,3751.88
2019-04-11T12:33:09.148Z,3633.75
2019-04-11T12:34:10.278Z,3808.12
2019-04-11T12:35:09.486Z,4708.12
2019-04-11T12:36:09.901Z,3605.62
2019-04-11T12:37:10.900Z,1766.25
2019-04-11T12:38:10.053Z,1659.38
2019-04-11T12:39:10.260Z,1445.62
2019-04-11T12:40:10.451Z,1659.38
2019-04-11T12:41:10.668Z,1468.12
2019-04-11T12:42:10.848Z,770.62
2019-04-11T12:43:11.053Z,1732.50
2019-04-11T12:44:11.235Z,1760.62
2019-04-11T12:45:11.386Z,1771.88